Time;durP1;ratioP1;P1;durP2;ratioP2;P2;SDS_P1;SDS_P2;PMS_P1;PMS_P2;Temp;Humidity;BMP_temperature;BMP_pressure;BME280_temperature;BME280_humidity;BME280_pressure;Samples;Min_cycle;Max_cycle;Signal;HPM_P1;HPM_P2
2022/01/09 00:00:24;;;;;;;;;5.50;2.00;;;;;7.83;80.15;99782.69;5053622;28;45356;-70
2022/01/09 00:02:50;;;;;;;;;3.50;2.75;;;;;7.87;80.04;99785.97;5053922;28;45340;-70
2022/01/09 00:05:16;;;;;;;;;6.25;5.00;;;;;7.92;80.11;99796.25;5053780;28;45445;-70
2022/01/09 00:07:42;;;;;;;;;3.50;2.75;;;;;7.98;80.06;99804.63;5050865;28;45600;-70
2022/01/09 00:10:09;;;;;;;;;2.50;1.00;;;;;7.98;79.32;99809.88;5063231;28;45388;-70
2022/01/09 00:12:34;;;;;;;;;2.00;2.00;;;;;7.95;79.38;99820.50;5054137;28;45593;-70
2022/01/09 00:15:00;;;;;;;;;6.50;1.00;;;;;7.90;79.26;99824.25;5060495;28;45350;-70
2022/01/09 00:17:26;;;;;;;;;2.00;0.00;;;;;7.83;79.71;99826.31;5053656;28;45635;-70
2022/01/09 00:19:51;;;;;;;;;6.00;0.50;;;;;7.77;79.50;99835.25;5053820;28;45300;-70
2022/01/09 00:22:20;;;;;;;;;2.50;2.50;;;;;7.71;79.53;99840.78;5055185;28;45506;-70
2022/01/09 00:24:45;;;;;;;;;1.00;1.00;;;;;7.64;79.70;99839.38;5051667;28;45406;-70
2022/01/09 00:27:11;;;;;;;;;2.25;1.75;;;;;7.58;79.57;99850.09;5053475;28;45448;-70
2022/01/09 00:29:36;;;;;;;;;1.00;1.00;;;;;7.52;79.70;99851.22;5063583;28;46780;-70
2022/01/09 00:32:01;;;;;;;;;3.50;2.25;;;;;7.48;79.74;99867.13;5053380;28;46169;-70
2022/01/09 00:34:27;;;;;;;;;1.25;1.25;;;;;7.43;79.49;99871.69;5055826;28;46171;-70
2022/01/09 00:36:52;;;;;;;;;2.75;2.25;;;;;7.30;79.66;99869.59;5053041;28;45470;-69
2022/01/09 00:39:17;;;;;;;;;1.75;1.25;;;;;7.31;80.13;99860.88;5054623;28;45392;-70
2022/01/09 00:41:43;;;;;;;;;5.50;2.00;;;;;7.27;79.81;99872.34;5062170;28;45470;-70
2022/01/09 00:44:08;;;;;;;;;2.00;1.00;;;;;7.24;80.04;99876.84;5052338;28;54302;-70
2022/01/09 00:46:33;;;;;;;;;2.00;0.00;;;;;7.21;80.28;99880.47;5067514;28;45257;-70
2022/01/09 00:49:03;;;;;;;;;4.00;1.00;;;;;7.18;80.29;99887.56;5053609;28;45829;-70
2022/01/09 00:51:29;;;;;;;;;2.25;1.00;;;;;7.13;80.41;99895.59;5053553;28;45566;-70
2022/01/09 00:53:54;;;;;;;;;1.00;1.00;;;;;7.05;80.50;99890.72;5060491;28;47174;-70
2022/01/09 00:56:20;;;;;;;;;2.25;2.00;;;;;7.09;80.49;99911.47;5064939;28;45646;-70
2022/01/09 00:58:45;;;;;;;;;2.25;1.00;;;;;7.05;80.44;99910.78;5052962;28;45348;-69
2022/01/09 01:01:10;;;;;;;;;2.00;1.00;;;;;7.02;80.60;99923.94;5053421;28;50447;-70
2022/01/09 01:03:36;;;;;;;;;5.75;1.50;;;;;6.93;80.44;99919.09;5052315;28;45359;-70
2022/01/09 01:06:01;;;;;;;;;0.75;0.75;;;;;6.97;80.58;99928.50;5052366;28;45478;-70
2022/01/09 01:08:26;;;;;;;;;4.50;1.50;;;;;6.96;80.24;99939.88;5053103;28;45464;-69
2022/01/09 01:10:52;;;;;;;;;1.67;1.33;;;;;6.88;80.11;99942.78;5058409;28;55150;-70
2022/01/09 01:13:17;;;;;;;;;0.00;0.00;;;;;6.90;80.50;99955.81;5054302;28;45371;-69
2022/01/09 01:15:43;;;;;;;;;5.00;2.00;;;;;6.88;79.96;99974.13;5052660;28;45525;-70
2022/01/09 01:18:08;;;;;;;;;2.75;1.00;;;;;6.83;80.24;99972.63;5051895;28;45489;-70
2022/01/09 01:20:33;;;;;;;;;0.25;0.00;;;;;6.64;80.11;99949.00;5052815;28;45505;-70
2022/01/09 01:22:59;;;;;;;;;0.75;0.50;;;;;6.84;80.20;100003.91;5052906;28;46251;-70
2022/01/09 01:25:25;;;;;;;;;2.00;2.00;;;;;6.83;80.23;100001.34;5054499;28;45345;-70
2022/01/09 01:27:51;;;;;;;;;2.75;1.50;;;;;6.85;79.82;100007.38;5052201;28;45309;-70
2022/01/09 01:30:17;;;;;;;;;5.00;2.00;;;;;6.83;80.17;100020.47;5052260;28;45538;-70
2022/01/09 01:32:43;;;;;;;;;1.00;0.75;;;;;6.83;80.08;100006.56;5051942;28;46255;-70
2022/01/09 01:35:09;;;;;;;;;0.50;0.00;;;;;6.82;79.85;100023.16;5062747;28;45867;-69
2022/01/09 01:37:38;;;;;;;;;1.00;0.25;;;;;6.79;80.08;100043.25;5054015;28;45502;-70
2022/01/09 01:40:06;;;;;;;;;1.25;0.75;;;;;6.78;80.14;100040.69;5053848;28;46776;-70
2022/01/09 01:42:32;;;;;;;;;1.00;1.00;;;;;6.75;80.35;100053.88;5058066;28;45612;-69
2022/01/09 01:44:57;;;;;;;;;4.25;0.00;;;;;6.79;80.21;100068.53;5051813;28;45462;-69
2022/01/09 01:47:22;;;;;;;;;1.25;1.25;;;;;6.76;80.41;100061.66;5052745;28;45408;-70
2022/01/09 01:49:49;;;;;;;;;1.00;1.00;;;;;6.90;80.30;100082.03;5052542;28;45407;-70
2022/01/09 01:52:16;;;;;;;;;5.25;1.00;;;;;6.98;80.63;100086.94;5053733;28;45944;-70
2022/01/09 01:54:43;;;;;;;;;4.00;1.00;;;;;7.07;80.83;100108.34;5051909;28;45679;-69
2022/01/09 01:57:09;;;;;;;;;7.00;0.00;;;;;7.10;81.41;100107.38;5052493;28;45339;-69
2022/01/09 01:59:35;;;;;;;;;1.00;0.25;;;;;7.12;100.00;100129.06;5052374;28;45479;-70
2022/01/09 02:02:01;;;;;;;;;6.00;0.50;;;;;7.10;100.00;100112.63;5037092;28;45580;-69
2022/01/09 02:04:26;;;;;;;;;1.00;1.00;;;;;7.05;90.69;100118.00;5054857;28;45508;-69
2022/01/09 02:06:52;;;;;;;;;1.25;1.25;;;;;7.00;91.62;100113.88;5052165;28;45445;-69
2022/01/09 02:09:17;;;;;;;;;3.50;1.25;;;;;6.97;92.56;100120.06;5052111;28;45376;-69
2022/01/09 02:11:43;;;;;;;;;0.00;0.00;;;;;6.92;91.55;100108.94;5056389;28;45482;-69
2022/01/09 02:14:09;;;;;;;;;1.00;0.00;;;;;7.03;89.82;100111.97;5056685;28;45666;-69
2022/01/09 02:16:42;;;;;;;;;2.00;0.00;;;;;7.07;88.34;100126.63;5057078;28;45397;-69
2022/01/09 02:19:11;;;;;;;;;1.50;0.00;;;;;7.11;88.67;100131.75;5054320;28;45526;-69
2022/01/09 02:21:40;;;;;;;;;2.50;1.00;;;;;7.12;88.83;100141.28;5055570;28;45328;-69
2022/01/09 02:24:05;;;;;;;;;0.75;0.75;;;;;7.15;87.61;100134.19;5054881;28;45997;-70
2022/01/09 02:26:30;;;;;;;;;1.50;0.00;;;;;7.10;87.94;100143.97;5056012;28;45379;-69
2022/01/09 02:28:56;;;;;;;;;2.25;0.75;;;;;7.14;87.61;100144.69;5055334;28;45620;-69
2022/01/09 02:31:21;;;;;;;;;0.00;0.00;;;;;7.10;87.79;100150.94;5056995;28;45580;-69
2022/01/09 02:33:47;;;;;;;;;1.00;0.00;;;;;7.10;87.38;100157.03;5055447;28;56675;-69
2022/01/09 02:36:12;;;;;;;;;0.50;0.00;;;;;7.11;87.59;100152.66;5055173;28;45594;-70
2022/01/09 02:38:38;;;;;;;;;2.00;0.25;;;;;7.10;87.23;100143.09;5054629;28;45840;-69
2022/01/09 02:41:03;;;;;;;;;2.00;1.00;;;;;7.15;87.40;100162.06;5054707;28;45415;-69
2022/01/09 02:43:29;;;;;;;;;0.00;0.00;;;;;7.16;87.19;100159.41;5052598;28;45496;-69
2022/01/09 02:46:05;;;;;;;;;0.00;0.00;;;;;7.19;87.11;100154.03;5055090;28;45685;-69
2022/01/09 02:48:34;;;;;;;;;2.00;0.00;;;;;7.16;86.39;100163.78;5054938;28;45503;-69
2022/01/09 02:51:06;;;;;;;;;1.50;0.50;;;;;7.03;86.52;100163.38;5054975;28;45351;-70
2022/01/09 02:53:35;;;;;;;;;4.50;2.00;;;;;7.04;86.85;100179.00;5045094;28;45930;-70
2022/01/09 02:56:02;;;;;;;;;0.00;0.00;;;;;7.03;86.59;100197.34;5054324;28;45340;-70
2022/01/09 02:58:28;;;;;;;;;2.75;1.00;;;;;7.10;86.44;100192.72;5051577;28;45539;-69
2022/01/09 03:00:53;;;;;;;;;0.75;0.00;;;;;7.05;86.68;100178.09;5054420;28;45592;-69
2022/01/09 03:03:19;;;;;;;;;0.00;0.00;;;;;7.08;86.26;100184.97;5055875;28;45277;-69
2022/01/09 03:05:44;;;;;;;;;1.00;0.00;;;;;7.02;86.39;100183.44;5060823;28;45402;-69
2022/01/09 03:08:09;;;;;;;;;0.00;0.00;;;;;6.94;86.10;100197.69;5062084;27;45410;-69
2022/01/09 03:10:35;;;;;;;;;1.00;0.00;;;;;6.90;86.29;100203.94;5055547;28;46000;-69
2022/01/09 03:13:01;;;;;;;;;0.75;0.00;;;;;6.93;86.37;100209.03;5056562;28;45613;-69
2022/01/09 03:15:27;;;;;;;;;3.00;1.25;;;;;6.93;86.28;100196.81;5054848;28;45346;-69
2022/01/09 03:17:53;;;;;;;;;0.00;0.00;;;;;6.96;85.89;100206.31;5054700;28;45320;-70
2022/01/09 03:20:23;;;;;;;;;1.00;0.25;;;;;6.88;86.06;100203.97;5054468;28;46085;-70
2022/01/09 03:22:49;;;;;;;;;4.50;1.50;;;;;6.86;86.44;100211.03;5053926;28;45496;-70
2022/01/09 03:25:15;;;;;;;;;1.75;0.75;;;;;6.88;86.49;100208.34;5069811;28;45431;-69
2022/01/09 03:27:41;;;;;;;;;1.00;1.00;;;;;6.87;86.20;100202.28;5062521;28;45570;-69
2022/01/09 03:30:09;;;;;;;;;1.00;1.00;;;;;6.87;85.84;100199.66;5061197;28;46185;-69
2022/01/09 03:32:36;;;;;;;;;0.75;0.75;;;;;6.83;85.94;100197.22;5055242;28;45458;-69
2022/01/09 03:35:03;;;;;;;;;4.75;1.00;;;;;6.79;86.32;100204.34;5054173;28;45450;-69
2022/01/09 03:37:28;;;;;;;;;2.00;0.75;;;;;6.78;86.17;100207.81;5057014;28;45550;-70
2022/01/09 03:39:54;;;;;;;;;1.00;0.00;;;;;6.82;86.10;100204.19;5053685;28;45439;-70
2022/01/09 03:42:19;;;;;;;;;1.00;0.00;;;;;6.88;86.31;100213.56;5053743;28;48695;-69
2022/01/09 03:44:44;;;;;;;;;2.00;0.00;;;;;6.93;86.45;100222.09;5054037;28;45301;-70
2022/01/09 03:47:10;;;;;;;;;1.50;1.00;;;;;6.98;86.24;100244.53;5052607;28;51418;-69
2022/01/09 03:49:35;;;;;;;;;1.00;1.00;;;;;7.03;86.22;100239.16;5055527;28;46227;-69
2022/01/09 03:52:01;;;;;;;;;2.50;0.50;;;;;6.82;100.00;100237.31;5054370;28;45496;-69
2022/01/09 03:54:26;;;;;;;;;1.00;0.00;;;;;6.72;100.00;100268.97;5053669;28;45435;-69
2022/01/09 03:56:52;;;;;;;;;0.00;0.00;;;;;6.66;100.00;100265.72;5053886;28;45476;-69
2022/01/09 03:59:18;;;;;;;;;0.00;0.00;;;;;6.61;100.00;100251.97;5053540;28;45355;-69
2022/01/09 04:01:44;;;;;;;;;0.00;0.00;;;;;6.58;100.00;100267.72;5056620;28;46043;-69
2022/01/09 04:04:11;;;;;;;;;1.75;0.50;;;;;6.57;100.00;100256.44;5056468;28;45446;-69
2022/01/09 04:06:39;;;;;;;;;0.00;0.00;;;;;6.50;100.00;100247.09;5056854;28;46225;-69
2022/01/09 04:09:08;;;;;;;;;0.00;0.00;;;;;6.58;100.00;100257.28;5053008;28;45977;-69
2022/01/09 04:11:38;;;;;;;;;0.00;0.00;;;;;6.62;100.00;100258.88;5053549;28;45478;-69
2022/01/09 04:14:04;;;;;;;;;0.75;0.75;;;;;6.63;100.00;100255.38;5052282;28;45360;-69
2022/01/09 04:16:29;;;;;;;;;1.00;0.00;;;;;6.53;100.00;100228.75;5056282;28;45452;-69
2022/01/09 04:18:55;;;;;;;;;0.25;0.00;;;;;6.49;100.00;100238.44;5053146;28;46016;-69
2022/01/09 04:21:20;;;;;;;;;0.50;0.00;;;;;6.37;100.00;100238.84;5053097;28;45510;-69
2022/01/09 04:23:46;;;;;;;;;0.25;0.00;;;;;6.33;100.00;100239.84;5053819;28;45474;-69
2022/01/09 04:26:12;;;;;;;;;0.50;0.50;;;;;6.20;100.00;100226.34;5053380;28;45293;-69
2022/01/09 04:28:37;;;;;;;;;2.00;0.00;;;;;6.22;98.27;100245.44;5054727;28;45304;-69
2022/01/09 04:31:03;;;;;;;;;0.00;0.00;;;;;6.14;95.75;100251.78;5053653;28;45525;-69
2022/01/09 04:33:28;;;;;;;;;1.50;0.00;;;;;6.14;94.56;100250.03;5054652;28;45612;-69
2022/01/09 04:35:53;;;;;;;;;4.75;1.00;;;;;6.22;93.97;100265.47;5053679;28;45586;-69
2022/01/09 04:38:19;;;;;;;;;0.00;0.00;;;;;6.24;93.77;100254.03;5057588;28;47806;-69
2022/01/09 04:40:44;;;;;;;;;2.25;0.00;;;;;6.38;92.94;100261.44;5053652;28;45586;-69
2022/01/09 04:43:11;;;;;;;;;2.00;0.00;;;;;6.45;92.75;100259.47;5054809;28;45272;-69
2022/01/09 04:45:37;;;;;;;;;1.75;0.00;;;;;6.53;91.56;100253.09;5053284;28;45418;-69
2022/01/09 04:48:06;;;;;;;;;0.75;0.00;;;;;6.53;91.45;100250.47;5054216;28;46073;-69
2022/01/09 04:50:34;;;;;;;;;0.25;0.25;;;;;6.56;91.05;100261.72;5054386;28;45819;-69
2022/01/09 04:53:05;;;;;;;;;2.00;0.00;;;;;6.58;90.53;100254.66;5053291;28;45540;-69
2022/01/09 04:55:42;;;;;;;;;1.00;0.25;;;;;6.63;90.65;100261.47;5050903;28;45398;-69
2022/01/09 04:58:08;;;;;;;;;1.75;0.75;;;;;6.68;90.85;100272.59;5053913;28;45401;-69
2022/01/09 05:00:34;;;;;;;;;1.00;0.00;;;;;6.73;90.61;100265.47;5057879;28;45617;-70
2022/01/09 05:03:00;;;;;;;;;0.00;0.00;;;;;6.78;90.15;100268.75;5060983;27;45712;-69
2022/01/09 05:05:26;;;;;;;;;0.00;0.00;;;;;6.80;90.61;100260.88;5052775;28;45424;-69
2022/01/09 05:07:51;;;;;;;;;2.00;1.00;;;;;6.76;90.68;100252.28;5062909;28;45401;-69
2022/01/09 05:10:18;;;;;;;;;0.00;0.00;;;;;6.70;90.61;100259.47;5054973;28;45364;-69
2022/01/09 05:12:43;;;;;;;;;1.50;0.00;;;;;6.57;90.56;100251.22;5052879;28;45506;-69
2022/01/09 05:15:09;;;;;;;;;0.50;0.25;;;;;6.57;90.78;100253.81;5052801;28;45497;-69
2022/01/09 05:17:35;;;;;;;;;2.75;0.00;;;;;6.54;90.47;100253.94;5053338;28;46104;-69
2022/01/09 05:20:01;;;;;;;;;0.50;0.00;;;;;6.50;90.05;100254.94;5053448;28;45505;-69
2022/01/09 05:22:29;;;;;;;;;0.50;0.50;;;;;6.54;90.45;100260.00;5054788;28;45509;-69
2022/01/09 05:24:58;;;;;;;;;0.75;0.00;;;;;6.54;89.73;100267.84;5052483;28;45508;-69
2022/01/09 05:27:24;;;;;;;;;0.00;0.00;;;;;6.51;89.95;100267.94;5039626;28;46415;-69
2022/01/09 05:29:50;;;;;;;;;1.50;0.00;;;;;6.49;89.91;100266.28;5052613;28;45878;-69
2022/01/09 05:32:15;;;;;;;;;1.75;1.00;;;;;6.44;89.99;100244.72;5052530;28;45756;-69
2022/01/09 05:34:40;;;;;;;;;2.75;1.00;;;;;6.52;89.97;100248.78;5053679;28;45431;-69
2022/01/09 05:37:06;;;;;;;;;1.00;1.00;;;;;6.51;89.69;100265.31;5057284;28;45760;-69
2022/01/09 05:39:32;;;;;;;;;0.50;0.50;;;;;6.49;89.96;100248.88;5053853;28;45585;-69
2022/01/09 05:41:58;;;;;;;;;1.00;1.00;;;;;6.49;89.96;100240.19;5053241;28;45324;-69
2022/01/09 05:44:24;;;;;;;;;0.75;0.50;;;;;6.42;89.90;100242.16;5052847;28;45422;-69
2022/01/09 05:46:49;;;;;;;;;1.75;0.75;;;;;6.49;89.98;100267.13;5053580;28;46263;-69
2022/01/09 05:49:15;;;;;;;;;2.50;0.00;;;;;6.49;90.04;100254.09;5057365;28;45452;-69
2022/01/09 05:51:41;;;;;;;;;1.50;0.00;;;;;6.50;89.86;100261.00;5058620;28;45481;-69
2022/01/09 05:54:06;;;;;;;;;2.00;0.75;;;;;6.48;90.10;100247.16;5055045;28;45482;-69
2022/01/09 05:56:31;;;;;;;;;0.75;0.00;;;;;6.57;90.57;100245.97;5055837;28;46005;-69
2022/01/09 05:58:57;;;;;;;;;0.00;0.00;;;;;6.59;89.73;100241.59;5055853;28;45675;-70
2022/01/09 06:01:22;;;;;;;;;0.00;0.00;;;;;6.55;89.30;100234.75;5057758;28;45360;-70
2022/01/09 06:03:47;;;;;;;;;1.00;0.00;;;;;6.61;89.37;100249.34;5045867;28;45370;-69
2022/01/09 06:06:13;;;;;;;;;0.75;0.00;;;;;6.60;89.40;100242.44;5055904;28;57576;-69
2022/01/09 06:08:38;;;;;;;;;2.00;0.00;;;;;6.64;89.53;100278.81;5058882;28;47234;-70
2022/01/09 06:11:03;;;;;;;;;0.25;0.00;;;;;6.70;89.82;100296.03;5055359;28;45404;-70
2022/01/09 06:13:29;;;;;;;;;1.00;0.25;;;;;6.74;89.61;100297.66;5057580;28;45481;-69
2022/01/09 06:15:54;;;;;;;;;5.75;1.25;;;;;6.79;89.91;100280.06;5055718;28;45435;-69
2022/01/09 06:18:21;;;;;;;;;1.25;0.75;;;;;6.78;89.11;100286.16;5056459;28;45491;-69
2022/01/09 06:20:49;;;;;;;;;1.25;1.25;;;;;6.72;89.76;100302.91;5055484;28;45542;-69
2022/01/09 06:23:19;;;;;;;;;1.25;1.00;;;;;6.71;90.17;100289.91;5057997;28;45564;-69
2022/01/09 06:25:45;;;;;;;;;0.75;0.50;;;;;6.78;90.17;100310.53;5056008;28;45740;-69
2022/01/09 06:28:10;;;;;;;;;1.00;0.00;;;;;6.79;90.17;100287.91;5056710;28;45942;-69
2022/01/09 06:30:36;;;;;;;;;0.00;0.00;;;;;6.81;90.09;100296.53;5057089;28;45639;-69
2022/01/09 06:33:01;;;;;;;;;2.00;2.00;;;;;6.84;89.72;100292.94;5054912;28;45404;-69
2022/01/09 06:35:26;;;;;;;;;2.00;0.00;;;;;6.82;89.76;100295.63;5055194;28;45411;-69
2022/01/09 06:37:52;;;;;;;;;1.00;1.00;;;;;6.81;89.58;100296.53;5055502;28;45566;-69
2022/01/09 06:40:18;;;;;;;;;0.00;0.00;;;;;6.84;89.73;100288.59;5056820;28;45462;-69
2022/01/09 06:42:44;;;;;;;;;2.00;0.00;;;;;6.82;89.22;100281.69;5055448;28;45285;-69
2022/01/09 06:45:09;;;;;;;;;1.25;1.00;;;;;6.79;89.23;100286.16;5055039;28;45318;-69
2022/01/09 06:47:35;;;;;;;;;2.00;0.00;;;;;6.75;88.99;100294.13;5054907;28;45400;-69
2022/01/09 06:50:00;;;;;;;;;2.33;1.00;;;;;6.72;88.82;100289.00;5036800;28;46191;-69
2022/01/09 06:52:25;;;;;;;;;0.00;0.00;;;;;6.68;89.30;100295.22;5056809;28;45616;-69
2022/01/09 06:54:51;;;;;;;;;1.50;0.50;;;;;6.64;88.86;100294.50;5054637;28;46088;-70
2022/01/09 06:57:16;;;;;;;;;2.75;1.00;;;;;6.61;88.95;100301.56;5058028;28;45415;-69
2022/01/09 06:59:41;;;;;;;;;2.00;1.00;;;;;6.58;89.01;100302.53;5061206;28;45776;-70
2022/01/09 07:02:07;;;;;;;;;0.00;0.00;;;;;6.59;89.06;100300.78;5054706;28;45343;-69
2022/01/09 07:04:32;;;;;;;;;1.33;0.00;;;;;6.61;89.28;100305.03;5056875;28;56306;-69
2022/01/09 07:06:57;;;;;;;;;1.00;0.00;;;;;6.58;89.15;100293.81;5061753;28;46109;-69
2022/01/09 07:09:23;;;;;;;;;0.00;0.00;;;;;6.65;88.60;100298.81;5053441;28;46619;-69
2022/01/09 07:11:49;;;;;;;;;2.25;1.00;;;;;6.66;89.03;100300.50;5054451;28;45457;-69
2022/01/09 07:14:14;;;;;;;;;1.25;0.50;;;;;6.68;89.03;100295.22;5054670;28;46362;-69
2022/01/09 07:16:40;;;;;;;;;2.00;1.00;;;;;6.68;88.79;100292.63;5055907;28;45615;-69
2022/01/09 07:19:05;;;;;;;;;0.50;0.50;;;;;6.64;89.19;100283.19;5055656;28;45408;-69
2022/01/09 07:21:30;;;;;;;;;1.00;0.25;;;;;6.65;89.09;100285.75;5060411;28;45388;-69
2022/01/09 07:23:56;;;;;;;;;0.00;0.00;;;;;6.72;88.99;100295.06;5063405;28;45491;-69
2022/01/09 07:26:21;;;;;;;;;2.00;0.00;;;;;6.74;88.68;100302.88;5053712;28;59956;-69
2022/01/09 07:28:47;;;;;;;;;0.00;0.00;;;;;6.75;88.42;100299.34;5054824;28;45822;-69
2022/01/09 07:31:12;;;;;;;;;1.00;0.00;;;;;6.73;88.79;100307.25;5062061;28;45578;-69
2022/01/09 07:33:37;;;;;;;;;0.00;0.00;;;;;6.76;88.40;100314.09;5056999;28;45482;-69
2022/01/09 07:36:03;;;;;;;;;0.00;0.00;;;;;6.77;89.03;100306.22;5052622;28;46884;-69
2022/01/09 07:38:28;;;;;;;;;0.00;0.00;;;;;6.78;88.37;100307.06;5054565;28;45407;-69
2022/01/09 07:40:54;;;;;;;;;1.00;0.25;;;;;6.79;88.73;100312.25;5053876;28;45298;-69
2022/01/09 07:43:20;;;;;;;;;0.50;0.00;;;;;6.80;88.98;100324.41;5055869;28;45308;-69
2022/01/09 07:45:46;;;;;;;;;1.00;1.00;;;;;6.80;89.25;100320.94;5054141;28;45604;-69
2022/01/09 07:48:11;;;;;;;;;0.00;0.00;;;;;6.85;89.55;100328.63;5054079;28;45617;-69
2022/01/09 07:50:36;;;;;;;;;2.00;0.00;;;;;6.81;90.00;100317.41;5053905;28;45410;-69
2022/01/09 07:53:02;;;;;;;;;0.00;0.00;;;;;6.86;90.09;100327.72;5067839;28;45457;-69
2022/01/09 07:55:28;;;;;;;;;1.50;0.00;;;;;6.79;90.26;100327.94;5050101;28;45365;-68
2022/01/09 07:57:53;;;;;;;;;0.00;0.00;;;;;6.72;90.22;100312.50;5053804;28;47519;-69
2022/01/09 08:00:20;;;;;;;;;2.75;0.00;;;;;6.70;90.18;100315.19;5053559;28;45495;-69
2022/01/09 08:02:46;;;;;;;;;0.25;0.00;;;;;6.73;89.70;100308.97;5054636;28;45708;-69
2022/01/09 08:05:14;;;;;;;;;0.00;0.00;;;;;6.73;90.52;100312.47;5053956;28;45531;-69
2022/01/09 08:07:40;;;;;;;;;2.50;0.25;;;;;6.74;90.32;100311.56;5067619;28;45343;-69
2022/01/09 08:10:06;;;;;;;;;0.00;0.00;;;;;6.77;90.24;100311.44;5053995;28;45290;-68
2022/01/09 08:12:31;;;;;;;;;0.25;0.00;;;;;6.78;90.49;100314.91;5053504;28;46091;-69
2022/01/09 08:14:57;;;;;;;;;0.00;0.00;;;;;6.82;90.03;100319.13;5052099;28;45462;-71
2022/01/09 08:17:23;;;;;;;;;0.00;0.00;;;;;6.86;90.43;100309.44;5053609;28;45738;-69
2022/01/09 08:19:48;;;;;;;;;0.50;0.25;;;;;6.89;89.86;100315.41;5053766;28;45419;-69
2022/01/09 08:22:13;;;;;;;;;1.25;1.00;;;;;6.88;90.37;100303.22;5055087;28;45439;-71
2022/01/09 08:24:39;;;;;;;;;2.75;1.25;;;;;6.92;90.40;100310.06;5053264;28;47583;-72
2022/01/09 08:27:05;;;;;;;;;1.00;1.00;;;;;6.89;90.28;100314.53;5054119;28;45407;-71
2022/01/09 08:29:31;;;;;;;;;2.50;1.00;;;;;6.86;90.21;100319.88;5053211;28;45529;-71
2022/01/09 08:31:56;;;;;;;;;4.75;0.75;;;;;6.90;90.35;100332.78;5057442;28;46943;-71
2022/01/09 08:34:21;;;;;;;;;2.75;0.50;;;;;6.67;90.31;100293.53;5055823;28;45493;-71
2022/01/09 08:36:47;;;;;;;;;0.00;0.00;;;;;7.00;90.38;100338.56;5052682;28;45293;-71
2022/01/09 08:39:12;;;;;;;;;6.75;1.50;;;;;7.05;90.17;100342.72;5053419;28;45504;-70
2022/01/09 08:41:38;;;;;;;;;1.00;1.00;;;;;7.07;89.83;100338.28;5052713;28;45543;-71
2022/01/09 08:44:05;;;;;;;;;0.00;0.00;;;;;7.15;89.80;100338.03;5050770;28;45375;-71
2022/01/09 08:46:35;;;;;;;;;2.50;0.00;;;;;7.35;90.06;100333.81;5051448;28;45279;-71
2022/01/09 08:49:02;;;;;;;;;1.50;1.00;;;;;7.48;89.47;100335.94;5057612;28;45406;-71
2022/01/09 08:51:28;;;;;;;;;0.50;0.00;;;;;7.47;88.40;100334.25;5057477;28;46189;-71
2022/01/09 08:53:55;;;;;;;;;1.00;1.00;;;;;7.43;88.27;100327.41;5053005;28;45454;-71
2022/01/09 08:56:22;;;;;;;;;2.00;0.00;;;;;7.41;88.40;100324.00;5054090;28;45575;-71
2022/01/09 08:58:48;;;;;;;;;1.00;1.00;;;;;7.41;88.61;100318.75;5051965;28;45759;-72
2022/01/09 09:01:14;;;;;;;;;2.00;1.00;;;;;7.37;88.29;100317.19;5043902;28;45556;-72
2022/01/09 09:03:42;;;;;;;;;2.00;2.00;;;;;7.30;88.17;100320.91;5049722;28;45493;-72
2022/01/09 09:06:10;;;;;;;;;2.25;1.00;;;;;7.33;88.82;100332.13;5039486;28;45411;-72
2022/01/09 09:08:36;;;;;;;;;6.00;4.50;;;;;7.28;88.69;100320.13;5039708;28;45621;-72
2022/01/09 09:11:02;;;;;;;;;1.25;1.00;;;;;7.38;88.62;100328.50;5033659;28;48512;-72
2022/01/09 09:13:27;;;;;;;;;1.00;0.00;;;;;7.38;88.46;100318.88;5041216;28;45327;-71
2022/01/09 09:15:52;;;;;;;;;3.00;1.00;;;;;7.59;88.86;100328.56;5033474;28;45586;-72
2022/01/09 09:18:18;;;;;;;;;1.75;0.50;;;;;7.83;88.98;100312.88;5039737;28;45399;-72
2022/01/09 09:20:44;;;;;;;;;1.75;1.00;;;;;8.32;88.44;100324.00;5038610;28;45808;-73
2022/01/09 09:23:10;;;;;;;;;0.00;0.00;;;;;8.49;87.34;100326.81;5036597;28;45893;-72
2022/01/09 09:25:35;;;;;;;;;0.50;0.50;;;;;8.57;86.60;100347.47;5066964;28;45350;-72
2022/01/09 09:28:00;;;;;;;;;0.00;0.00;;;;;8.53;86.33;100344.13;5047206;28;45372;-72
2022/01/09 09:30:26;;;;;;;;;0.50;0.50;;;;;8.53;86.60;100344.13;5046179;28;45761;-72
2022/01/09 09:32:51;;;;;;;;;1.50;1.00;;;;;8.48;86.32;100346.06;5048695;28;45451;-72
2022/01/09 09:35:16;;;;;;;;;1.25;0.75;;;;;8.43;86.20;100350.66;5036750;28;45461;-72
2022/01/09 09:37:42;;;;;;;;;0.75;0.00;;;;;8.34;85.97;100349.19;5053046;28;45391;-71
2022/01/09 09:40:08;;;;;;;;;0.75;0.00;;;;;8.21;86.24;100341.91;5039855;28;46114;-71
2022/01/09 09:42:33;;;;;;;;;0.00;0.00;;;;;8.18;86.06;100352.50;5035476;28;45357;-71
2022/01/09 09:45:01;;;;;;;;;1.50;0.00;;;;;8.09;86.47;100348.47;5042053;28;45461;-71
2022/01/09 09:47:28;;;;;;;;;1.00;1.00;;;;;8.09;87.16;100346.72;5053419;28;45597;-72
2022/01/09 09:49:53;;;;;;;;;0.25;0.00;;;;;8.05;87.25;100349.50;5051158;28;45363;-71
2022/01/09 09:52:19;;;;;;;;;0.00;0.00;;;;;8.02;87.60;100350.47;5043469;28;46350;-72
2022/01/09 09:54:47;;;;;;;;;0.75;0.75;;;;;7.98;87.68;100361.97;5046302;28;45581;-73
2022/01/09 09:57:12;;;;;;;;;2.25;1.25;;;;;7.96;87.60;100366.41;5051817;28;45317;-71
2022/01/09 09:59:38;;;;;;;;;1.50;1.50;;;;;7.89;87.47;100364.94;5051271;28;53854;-71
2022/01/09 10:02:17;;;;;;;;;1.00;1.00;;;;;7.88;87.82;100359.75;5060153;28;45349;-72
2022/01/09 10:04:59;;;;;;;;;0.75;0.75;;;;;7.90;87.84;100373.66;5052494;28;45374;-72
2022/01/09 10:07:25;;;;;;;;;2.00;0.00;;;;;7.90;88.38;100376.25;5047234;28;45524;-72
2022/01/09 10:09:58;;;;;;;;;2.25;0.25;;;;;7.90;87.98;100378.88;5039083;28;45511;-72
2022/01/09 10:12:29;;;;;;;;;1.00;1.00;;;;;7.90;87.95;100390.19;5031271;28;45431;-72
2022/01/09 10:14:56;;;;;;;;;1.00;1.00;;;;;7.89;88.02;100391.13;5051948;28;45683;-71
2022/01/09 10:17:24;;;;;;;;;5.25;2.50;;;;;7.87;88.44;100376.38;5043512;28;45510;-71
2022/01/09 10:19:52;;;;;;;;;1.75;1.75;;;;;7.88;87.16;100376.28;5049943;28;47086;-72
2022/01/09 10:22:30;;;;;;;;;5.50;2.00;;;;;7.85;87.13;100384.28;5049007;28;45695;-70
2022/01/09 10:24:56;;;;;;;;;1.00;1.00;;;;;7.78;86.78;100380.19;5045251;28;45344;-71
2022/01/09 10:27:35;;;;;;;;;7.00;2.00;;;;;7.74;87.02;100389.91;5042968;28;45561;-71
2022/01/09 10:30:04;;;;;;;;;3.00;2.00;;;;;7.73;86.93;100387.34;5038666;28;45370;-72
2022/01/09 10:32:31;;;;;;;;;2.00;2.00;;;;;7.72;87.49;100380.41;5038591;28;45773;-71
2022/01/09 10:35:16;;;;;;;;;2.00;2.00;;;;;7.73;87.73;100382.97;5042692;28;45333;-71
2022/01/09 10:37:47;;;;;;;;;4.00;2.00;;;;;7.69;87.64;100384.00;5063817;28;45502;-72
2022/01/09 10:40:34;;;;;;;;;8.00;5.25;;;;;7.75;87.62;100385.53;5052879;28;45525;-71
2022/01/09 10:43:06;;;;;;;;;10.00;5.50;;;;;7.80;87.45;100388.81;5042338;28;49113;-71
2022/01/09 10:45:32;;;;;;;;;5.50;5.25;;;;;7.83;87.64;100388.72;5046970;28;45668;-71
2022/01/09 10:48:30;;;;;;;;;7.50;4.50;;;;;7.90;87.69;100382.34;5050783;28;45843;-71
2022/01/09 10:50:56;;;;;;;;;9.25;6.50;;;;;7.99;87.22;100378.53;5046715;28;45562;-72
2022/01/09 10:53:22;;;;;;;;;3.00;3.00;;;;;8.15;87.36;100382.28;5049588;28;45768;-72
2022/01/09 10:56:00;;;;;;;;;7.00;6.25;;;;;8.25;87.11;100388.84;5046132;28;46935;-72
2022/01/09 10:58:27;;;;;;;;;10.50;7.00;;;;;8.30;86.65;100392.16;5056271;28;45541;-72
2022/01/09 11:01:15;;;;;;;;;9.00;6.75;;;;;8.29;86.26;100393.03;5042544;28;45444;-72
2022/01/09 11:03:43;;;;;;;;;13.25;10.75;;;;;8.23;86.06;100387.19;5045350;28;45401;-72
2022/01/09 11:06:09;;;;;;;;;5.50;5.00;;;;;8.16;85.59;100393.59;5048283;28;45244;-72
2022/01/09 11:08:36;;;;;;;;;14.00;11.00;;;;;8.08;86.10;100399.09;5042042;28;45720;-72
2022/01/09 11:11:08;;;;;;;;;10.50;10.50;;;;;8.01;86.36;100393.25;5047630;28;46141;-72
2022/01/09 11:13:36;;;;;;;;;15.75;12.75;;;;;7.95;86.54;100395.25;5040448;28;45921;-73
2022/01/09 11:18:46;;;;;;;;;11.25;9.50;;;;;7.81;86.99;100395.75;5049258;28;45560;-71
2022/01/09 11:21:12;;;;;;;;;11.75;9.75;;;;;7.80;87.76;100400.16;5052734;28;46386;-71
2022/01/09 11:23:52;;;;;;;;;10.75;10.25;;;;;7.79;87.69;100410.66;5040996;28;45586;-70
2022/01/09 11:26:18;;;;;;;;;9.75;9.50;;;;;7.75;88.02;100415.16;5044616;28;45943;-70
2022/01/09 11:28:50;;;;;;;;;18.75;11.75;;;;;7.74;87.96;100415.22;5044499;28;45492;-71
2022/01/09 11:31:52;;;;;;;;;15.50;11.75;;;;;7.73;87.98;100409.13;5050142;28;45458;-71
2022/01/09 11:35:06;;;;;;;;;17.25;17.25;;;;;7.75;88.06;100412.53;5047608;28;46044;-71